Time;durP1;ratioP1;P1;durP2;ratioP2;P2;SDS_P1;SDS_P2;PMS_P1;PMS_P2;Temp;Humidity;BMP_temperature;BMP_pressure;BME280_temperature;BME280_humidity;BME280_pressure;Samples;Min_cycle;Max_cycle;Signal;HPM_P1;HPM_P2
2024/05/05 00:01:58;;;;;;;3.00;1.30;;;16.00;1.00;;;;;;5126348;27;20082;-93
2024/05/05 00:04:25;;;;;;;3.00;1.10;;;15.90;1.00;;;;;;5156258;27;20149;-93
2024/05/05 00:06:53;;;;;;;1.60;1.13;;;15.90;1.00;;;;;;5154238;27;20147;-93
2024/05/05 00:09:20;;;;;;;1.60;1.08;;;15.90;1.00;;;;;;5166212;22;20061;-93
2024/05/05 00:11:47;;;;;;;1.77;1.23;;;15.80;1.00;;;;;;5192602;27;20062;-92
2024/05/05 00:14:15;;;;;;;3.97;1.48;;;15.80;1.00;;;;;;5218752;27;20062;-93
2024/05/05 00:16:42;;;;;;;3.25;1.52;;;15.80;1.00;;;;;;5219309;27;20072;-93
2024/05/05 00:19:10;;;;;;;2.67;1.30;;;15.80;1.00;;;;;;5218000;27;20582;-93
2024/05/05 00:21:37;;;;;;;3.88;1.40;;;15.70;1.00;;;;;;5218650;27;20101;-92
2024/05/05 00:24:06;;;;;;;1.67;1.15;;;15.70;1.00;;;;;;5218688;27;20204;-93
2024/05/05 00:26:33;;;;;;;1.60;1.00;;;15.70;1.00;;;;;;5192011;27;20074;-93
2024/05/05 00:29:01;;;;;;;2.88;1.20;;;15.80;1.00;;;;;;5246456;27;20089;-93
2024/05/05 00:31:28;;;;;;;1.55;1.08;;;15.90;1.00;;;;;;5191851;27;20059;-92
2024/05/05 00:33:56;;;;;;;6.38;1.65;;;15.70;1.00;;;;;;5192026;27;20092;-92
2024/05/05 00:36:23;;;;;;;1.85;1.10;;;15.70;1.00;;;;;;5192014;27;20063;-94
2024/05/05 00:38:50;;;;;;;2.13;1.15;;;15.70;1.00;;;;;;5220711;27;20144;-92
2024/05/05 00:41:17;;;;;;;3.33;1.30;;;15.60;1.00;;;;;;5204192;27;20064;-91
2024/05/05 00:43:44;;;;;;;1.75;1.00;;;15.70;1.00;;;;;;5222716;27;20118;-92
2024/05/05 00:46:12;;;;;;;4.80;1.20;;;15.70;1.00;;;;;;5219626;27;20074;-92
2024/05/05 00:48:43;;;;;;;2.88;1.20;;;15.70;1.00;;;;;;5217786;27;20059;-92
2024/05/05 00:51:12;;;;;;;3.05;1.10;;;15.60;1.00;;;;;;5218825;27;20078;-92
2024/05/05 00:53:40;;;;;;;2.20;1.08;;;15.60;1.00;;;;;;5219205;27;20125;-92
2024/05/05 00:56:09;;;;;;;2.40;1.00;;;15.60;1.00;;;;;;5218289;27;20079;-92
2024/05/05 00:58:44;;;;;;;1.67;1.05;;;15.50;1.00;;;;;;5219617;27;20135;-92
2024/05/05 01:01:11;;;;;;;;;;;15.50;1.00;;;;;;5224366;27;20122;-92
2024/05/05 01:03:39;;;;;;;2.10;1.15;;;15.50;1.00;;;;;;5191349;27;19992;-92
2024/05/05 01:06:06;;;;;;;4.28;1.10;;;15.50;1.00;;;;;;5190866;27;20103;-92
2024/05/05 01:08:33;;;;;;;3.88;1.20;;;15.40;1.00;;;;;;5190889;27;20060;-92
2024/05/05 01:11:00;;;;;;;2.00;0.95;;;15.50;1.00;;;;;;5190395;27;20484;-92
2024/05/05 01:13:28;;;;;;;1.65;1.00;;;15.40;1.00;;;;;;5191024;27;20126;-92
2024/05/05 01:15:55;;;;;;;3.80;0.90;;;15.50;1.00;;;;;;5217642;27;20063;-93
2024/05/05 01:18:22;;;;;;;2.03;0.80;;;15.40;1.00;;;;;;5191346;27;20114;-93
2024/05/05 01:20:53;;;;;;;1.33;0.90;;;15.40;1.00;;;;;;5191477;27;20068;-92
2024/05/05 01:23:20;;;;;;;1.98;0.90;;;15.40;1.00;;;;;;5191250;27;20054;-92
2024/05/05 01:25:52;;;;;;;1.23;0.90;;;15.40;1.00;;;;;;5192691;27;20067;-93
2024/05/05 01:28:20;;;;;;;0.80;0.65;;;15.40;1.00;;;;;;5191157;27;20086;-93
2024/05/05 01:30:52;;;;;;;2.22;0.98;;;15.40;1.00;;;;;;5218459;27;20149;-93
2024/05/05 01:33:20;;;;;;;1.08;0.80;;;15.40;1.00;;;;;;5217791;27;20098;-93
2024/05/05 01:35:47;;;;;;;1.23;0.80;;;15.40;1.00;;;;;;5192361;27;20143;-92
2024/05/05 01:38:14;;;;;;;1.20;0.80;;;15.40;1.00;;;;;;5191439;27;20060;-93
2024/05/05 01:40:41;;;;;;;1.25;0.93;;;15.40;1.00;;;;;;5190881;27;20062;-92
2024/05/05 01:43:08;;;;;;;3.28;1.00;;;15.30;1.00;;;;;;5191751;27;20123;-92
2024/05/05 01:45:35;;;;;;;1.92;0.75;;;15.30;1.00;;;;;;5190575;27;20091;-92
2024/05/05 01:48:04;;;;;;;1.48;0.80;;;15.30;1.00;;;;;;5216862;27;20083;-92
2024/05/05 01:50:31;;;;;;;1.48;0.90;;;15.30;1.00;;;;;;5218344;27;20144;-93
2024/05/05 01:53:01;;;;;;;1.83;0.73;;;15.30;1.00;;;;;;5191142;27;20067;-93
2024/05/05 01:55:28;;;;;;;1.83;1.05;;;15.20;1.00;;;;;;5217909;27;20079;-93
2024/05/05 01:57:57;;;;;;;1.52;1.10;;;15.20;1.00;;;;;;5190754;27;20452;-92
2024/05/05 02:00:25;;;;;;;1.98;1.08;;;15.20;1.00;;;;;;5190450;27;20146;-93
2024/05/05 02:02:52;;;;;;;1.05;0.85;;;15.20;1.00;;;;;;5190699;27;20080;-92
2024/05/05 02:05:21;;;;;;;1.05;0.70;;;15.10;1.00;;;;;;5191038;27;20064;-93
2024/05/05 02:07:48;;;;;;;3.05;1.38;;;15.10;1.00;;;;;;5218420;27;20082;-92
2024/05/05 02:10:16;;;;;;;1.55;0.80;;;15.00;1.00;;;;;;5218336;27;20068;-93
2024/05/05 02:12:43;;;;;;;2.78;1.13;;;14.90;1.00;;;;;;5184277;27;20559;-92
2024/05/05 02:15:11;;;;;;;2.35;1.10;;;14.90;1.00;;;;;;5183948;27;20509;-92
2024/05/05 02:17:41;;;;;;;2.65;1.00;;;14.80;1.00;;;;;;5211950;27;20055;-92
2024/05/05 02:20:08;;;;;;;1.50;1.00;;;14.80;1.00;;;;;;5215475;27;20184;-93
2024/05/05 02:22:37;;;;;;;4.10;1.00;;;14.80;1.00;;;;;;5186915;27;20068;-92
2024/05/05 02:25:05;;;;;;;1.20;0.70;;;14.80;1.00;;;;;;5214432;27;20079;-93
2024/05/05 02:27:32;;;;;;;1.95;0.82;;;14.80;1.00;;;;;;5170080;27;20201;-92
2024/05/05 02:29:59;;;;;;;1.75;0.88;;;14.80;1.00;;;;;;5186702;27;20121;-92
2024/05/05 02:32:27;;;;;;;3.85;1.05;;;14.90;1.00;;;;;;5187559;27;20067;-92
2024/05/05 02:34:55;;;;;;;1.63;0.80;;;14.80;1.00;;;;;;5160698;27;20079;-93
2024/05/05 02:37:22;;;;;;;2.50;0.88;;;14.90;1.00;;;;;;5186985;27;20060;-92
2024/05/05 02:39:49;;;;;;;1.90;1.13;;;14.90;1.00;;;;;;5160423;27;20068;-93
2024/05/05 02:42:16;;;;;;;2.58;1.05;;;14.80;1.00;;;;;;5159351;27;20127;-93
2024/05/05 02:44:44;;;;;;;2.08;1.00;;;14.70;1.00;;;;;;5160527;27;20500;-93
2024/05/05 02:47:11;;;;;;;2.72;0.90;;;14.70;1.00;;;;;;5161854;27;20079;-92
2024/05/05 02:49:38;;;;;;;1.30;0.73;;;14.70;1.00;;;;;;5162321;27;20533;-92
2024/05/05 02:52:05;;;;;;;1.27;0.80;;;14.70;1.00;;;;;;5161081;27;20564;-93
2024/05/05 02:54:33;;;;;;;4.40;1.13;;;14.60;1.00;;;;;;5160881;27;20052;-92
2024/05/05 02:57:01;;;;;;;3.85;1.27;;;14.50;1.00;;;;;;5160983;27;20078;-92
2024/05/05 02:59:31;;;;;;;1.88;1.17;;;14.40;39.20;;;;;;5159991;27;20535;-92
2024/05/05 03:01:58;;;;;;;3.25;1.30;;;14.30;99.90;;;;;;5187266;27;20090;-92
2024/05/05 03:04:25;;;;;;;3.05;1.20;;;14.20;99.90;;;;;;5159964;27;20142;-93
2024/05/05 03:06:53;;;;;;;2.25;1.00;;;14.20;99.90;;;;;;5188500;27;20079;-92
2024/05/05 03:09:20;;;;;;;5.60;1.30;;;14.10;99.90;;;;;;5187611;27;20057;-93
2024/05/05 03:11:48;;;;;;;2.28;1.20;;;14.10;99.90;;;;;;5160287;27;20509;-92
2024/05/05 03:14:15;;;;;;;2.17;1.25;;;14.10;99.90;;;;;;5186780;27;20249;-92
2024/05/05 03:16:42;;;;;;;1.45;1.20;;;14.00;99.90;;;;;;5159437;27;20151;-93
2024/05/05 03:19:10;;;;;;;2.63;1.30;;;14.00;99.90;;;;;;5160331;27;20061;-92
2024/05/05 03:21:42;;;;;;;1.73;1.08;;;14.00;99.90;;;;;;5160502;27;20087;-93
2024/05/05 03:24:09;;;;;;;1.92;1.05;;;14.00;99.90;;;;;;5159337;27;20082;-92
2024/05/05 03:26:43;;;;;;;3.72;1.08;;;14.00;99.90;;;;;;5185978;27;20078;-93
2024/05/05 03:29:11;;;;;;;1.38;1.00;;;14.00;99.90;;;;;;5185414;27;20077;-93
2024/05/05 03:31:38;;;;;;;3.38;1.30;;;14.00;99.90;;;;;;5206959;27;20106;-93
2024/05/05 03:34:06;;;;;;;1.77;1.02;;;14.00;99.90;;;;;;5194710;27;20060;-93
2024/05/05 03:36:33;;;;;;;2.05;1.20;;;14.10;99.90;;;;;;5191198;27;20059;-93
2024/05/05 03:39:00;;;;;;;3.72;1.20;;;14.10;99.90;;;;;;5191517;27;20522;-93
2024/05/05 03:41:28;;;;;;;2.85;1.10;;;14.20;99.90;;;;;;5191631;27;20622;-93
2024/05/05 03:43:55;;;;;;;5.80;1.23;;;14.20;99.90;;;;;;5191851;27;20067;-92
2024/05/05 03:46:22;;;;;;;5.43;1.30;;;14.20;99.90;;;;;;5191693;27;20056;-92
2024/05/05 03:48:49;;;;;;;2.42;1.25;;;14.20;99.90;;;;;;5218825;27;20071;-92
2024/05/05 03:51:16;;;;;;;1.70;1.10;;;14.10;99.90;;;;;;5247662;27;20093;-93
2024/05/05 03:53:43;;;;;;;1.10;0.90;;;14.10;99.90;;;;;;5191811;27;20060;-93
2024/05/05 03:56:12;;;;;;;2.05;1.00;;;14.00;99.90;;;;;;5191800;27;20060;-92
2024/05/05 03:58:39;;;;;;;4.53;1.30;;;13.90;99.90;;;;;;5191849;27;20068;-92
2024/05/05 04:01:06;;;;;;;2.97;1.25;;;13.80;99.90;;;;;;5201412;27;20090;-92
2024/05/05 04:03:33;;;;;;;1.50;1.23;;;13.80;99.90;;;;;;5230425;27;20083;-92
2024/05/05 04:06:01;;;;;;;2.42;1.50;;;13.80;99.90;;;;;;5231707;27;20097;-92
2024/05/05 04:08:27;;;;;;;5.68;1.50;;;13.70;99.90;;;;;;5227675;27;20473;-92
2024/05/05 04:10:55;;;;;;;5.03;1.70;;;13.70;99.90;;;;;;5218473;27;20087;-93
2024/05/05 04:13:22;;;;;;;3.25;1.70;;;13.60;99.90;;;;;;5192398;27;20058;-93
2024/05/05 04:15:54;;;;;;;3.13;1.58;;;13.40;99.90;;;;;;5192547;27;20059;-92
2024/05/05 04:18:22;;;;;;;3.95;1.50;;;13.30;99.90;;;;;;5192523;27;20062;-92
2024/05/05 04:20:50;;;;;;;3.13;1.50;;;13.20;99.90;;;;;;5190588;27;20093;-93
2024/05/05 04:23:17;;;;;;;2.20;1.60;;;13.20;99.90;;;;;;5192366;27;20078;-92
2024/05/05 04:25:44;;;;;;;2.45;1.48;;;13.20;99.90;;;;;;5218598;27;20145;-92
2024/05/05 04:28:11;;;;;;;2.63;1.70;;;13.20;99.90;;;;;;5191369;27;20060;-92
2024/05/05 04:30:38;;;;;;;3.45;1.60;;;13.30;99.90;;;;;;5191541;27;20071;-92
2024/05/05 04:33:06;;;;;;;4.40;1.60;;;13.30;99.90;;;;;;5191201;27;20059;-92
2024/05/05 04:35:33;;;;;;;2.55;1.58;;;13.40;99.90;;;;;;5190328;27;20083;-92
2024/05/05 04:38:01;;;;;;;5.72;1.52;;;13.40;99.90;;;;;;5218530;27;20055;-92
2024/05/05 04:40:31;;;;;;;2.65;1.40;;;13.50;99.90;;;;;;5192145;27;20396;-92
2024/05/05 04:42:58;;;;;;;2.30;1.50;;;13.40;99.90;;;;;;5191531;27;20145;-92
2024/05/05 04:45:25;;;;;;;2.92;1.73;;;13.40;99.90;;;;;;5217955;27;20064;-92
2024/05/05 04:47:52;;;;;;;2.42;1.73;;;13.40;99.90;;;;;;5218312;27;20077;-92
2024/05/05 04:50:20;;;;;;;2.53;1.60;;;13.50;99.90;;;;;;5246811;27;20074;-92
2024/05/05 04:52:47;;;;;;;2.92;1.40;;;13.50;99.90;;;;;;5190950;27;20052;-92
2024/05/05 04:55:14;;;;;;;2.58;1.60;;;13.60;99.90;;;;;;5190203;27;20066;-92
2024/05/05 04:57:41;;;;;;;5.05;1.90;;;13.70;99.90;;;;;;5190537;27;20078;-92
2024/05/05 05:00:09;;;;;;;3.55;1.55;;;13.80;99.90;;;;;;5190835;27;20059;-92
2024/05/05 05:02:36;;;;;;;4.13;1.60;;;13.80;99.90;;;;;;5217937;27;20153;-92
2024/05/05 05:05:03;;;;;;;4.15;1.50;;;13.90;99.90;;;;;;5190624;27;20181;-92
2024/05/05 05:07:30;;;;;;;2.20;1.33;;;14.00;99.90;;;;;;5190308;27;20081;-92
2024/05/05 05:09:57;;;;;;;2.22;1.42;;;14.00;99.90;;;;;;5217144;27;20076;-92
2024/05/05 05:12:25;;;;;;;2.53;1.67;;;14.10;99.90;;;;;;5217062;27;20469;-92
2024/05/05 05:14:52;;;;;;;6.28;1.63;;;14.20;99.90;;;;;;5190669;27;20078;-93
2024/05/05 05:17:21;;;;;;;4.15;1.65;;;14.40;99.90;;;;;;5190275;27;20155;-92
2024/05/05 05:19:49;;;;;;;3.33;1.63;;;14.50;99.90;;;;;;5245213;27;20562;-92
2024/05/05 05:22:16;;;;;;;3.92;1.70;;;14.60;99.90;;;;;;5217136;27;20072;-92
2024/05/05 05:24:43;;;;;;;4.43;1.83;;;14.70;99.90;;;;;;5217006;27;20059;-92
2024/05/05 05:27:10;;;;;;;2.88;1.88;;;14.80;99.90;;;;;;5190739;27;20058;-93
2024/05/05 05:29:37;;;;;;;2.53;2.00;;;14.90;99.90;;;;;;5190853;27;20055;-92
2024/05/05 05:32:05;;;;;;;3.50;2.20;;;14.90;99.90;;;;;;5190065;27;20063;-92
2024/05/05 05:34:32;;;;;;;3.03;2.13;;;14.90;99.90;;;;;;5189791;27;20068;-92
2024/05/05 05:37:03;;;;;;;4.45;2.22;;;14.90;99.90;;;;;;5191499;27;20531;-91
2024/05/05 05:39:30;;;;;;;4.72;2.13;;;14.90;99.90;;;;;;5190141;27;20512;-92
2024/05/05 05:41:57;;;;;;;2.55;1.83;;;14.90;99.90;;;;;;5190483;27;20063;-92
2024/05/05 05:44:25;;;;;;;4.00;2.20;;;15.00;99.90;;;;;;5190470;27;20059;-92
2024/05/05 05:46:53;;;;;;;4.20;1.92;;;15.00;99.90;;;;;;5218193;27;20077;-92
2024/05/05 05:49:20;;;;;;;3.28;2.10;;;15.10;99.90;;;;;;5217705;27;20060;-92
2024/05/05 05:51:47;;;;;;;2.75;2.03;;;15.20;99.90;;;;;;5184190;27;20067;-92
2024/05/05 05:54:14;;;;;;;3.30;2.05;;;15.10;99.90;;;;;;5184394;27;20403;-92
2024/05/05 05:56:41;;;;;;;4.75;2.13;;;15.30;99.90;;;;;;5184443;27;20079;-92
2024/05/05 05:59:08;;;;;;;4.45;2.40;;;15.30;99.90;;;;;;5184380;27;20075;-93
2024/05/05 06:01:35;;;;;;;4.05;2.22;;;15.30;99.90;;;;;;5211067;27;20064;-92
2024/05/05 06:04:02;;;;;;;3.40;2.00;;;15.30;99.90;;;;;;5163630;27;20076;-92
2024/05/05 06:06:31;;;;;;;5.35;2.47;;;15.30;99.90;;;;;;5211838;27;20083;-91
2024/05/05 06:08:58;;;;;;;3.30;2.45;;;15.30;99.90;;;;;;5211394;27;20059;-92
2024/05/05 06:11:25;;;;;;;4.40;2.38;;;15.30;99.90;;;;;;5184070;27;20087;-92
2024/05/05 06:13:53;;;;;;;5.25;2.30;;;15.30;99.90;;;;;;5184503;27;20059;-92
2024/05/05 06:16:20;;;;;;;3.97;3.22;;;15.20;99.90;;;;;;5211607;27;20469;-92
2024/05/05 06:18:48;;;;;;;6.82;3.58;;;15.20;99.90;;;;;;5210533;27;20060;-92
2024/05/05 06:21:18;;;;;;;6.22;2.97;;;15.20;99.90;;;;;;5210889;27;20072;-93
2024/05/05 06:23:46;;;;;;;3.40;3.00;;;15.20;99.90;;;;;;5156822;27;20055;-91
2024/05/05 06:26:13;;;;;;;6.28;3.63;;;15.20;99.90;;;;;;5213184;27;20057;-92
2024/05/05 06:28:40;;;;;;;7.35;4.20;;;15.20;99.90;;;;;;5188955;27;20443;-90
2024/05/05 06:31:08;;;;;;;6.38;3.78;;;15.30;99.90;;;;;;5189345;27;20103;-91
2024/05/05 06:33:35;;;;;;;5.90;3.63;;;15.30;99.90;;;;;;5189526;27;20055;-91
2024/05/05 06:36:08;;;;;;;5.20;3.50;;;15.40;99.90;;;;;;5216169;27;20059;-91
2024/05/05 06:38:37;;;;;;;5.32;3.72;;;15.50;99.90;;;;;;5189798;27;20059;-92
2024/05/05 06:41:05;;;;;;;5.68;3.38;;;15.50;99.90;;;;;;5189364;27;20063;-91
2024/05/05 06:43:32;;;;;;;7.72;4.00;;;15.60;99.90;;;;;;5188793;27;20123;-92
2024/05/05 06:45:59;;;;;;;9.43;3.92;;;15.70;99.90;;;;;;5189843;27;20055;-91
2024/05/05 06:48:27;;;;;;;7.13;3.55;;;15.70;99.90;;;;;;5188874;27;20056;-92
2024/05/05 06:50:54;;;;;;;7.65;3.42;;;15.80;99.90;;;;;;5188652;27;20543;-92
2024/05/05 06:53:21;;;;;;;7.35;4.10;;;15.90;99.90;;;;;;5215528;27;20072;-93
2024/05/05 06:55:48;;;;;;;5.88;3.33;;;15.90;99.90;;;;;;5216023;27;20055;-93
2024/05/05 06:58:16;;;;;;;5.70;2.88;;;16.00;99.90;;;;;;5215893;27;20396;-91
2024/05/05 07:00:43;;;;;;;7.32;3.60;;;16.10;99.90;;;;;;5189845;27;20075;-92
2024/05/05 07:03:13;;;;;;;5.68;3.28;;;16.20;99.90;;;;;;5189172;27;20063;-92
2024/05/05 07:05:42;;;;;;;5.88;3.45;;;16.20;99.90;;;;;;5220487;27;20705;-92
2024/05/05 07:08:09;;;;;;;4.45;3.17;;;16.30;99.90;;;;;;5206260;27;20091;-91
2024/05/05 07:10:36;;;;;;;3.25;2.95;;;16.30;99.90;;;;;;5221460;27;20078;-92
2024/05/05 07:13:04;;;;;;;4.60;2.90;;;16.30;99.90;;;;;;5225160;27;20071;-91
2024/05/05 07:15:31;;;;;;;7.40;3.20;;;16.50;99.90;;;;;;5252483;27;20059;-92
2024/05/05 07:17:58;;;;;;;3.55;2.90;;;16.50;99.90;;;;;;5226122;27;20070;-93
2024/05/05 07:20:25;;;;;;;4.03;3.00;;;16.60;99.90;;;;;;5226415;27;20054;-91
2024/05/05 07:22:52;;;;;;;6.38;3.10;;;16.70;99.90;;;;;;5226579;27;20148;-92
2024/05/05 07:25:20;;;;;;;5.25;3.15;;;16.80;99.90;;;;;;5225954;27;20111;-95
2024/05/05 07:27:47;;;;;;;6.20;3.88;;;16.80;99.90;;;;;;5225475;27;20059;-94
2024/05/05 07:30:14;;;;;;;7.35;3.70;;;16.90;99.90;;;;;;5225617;27;20147;-93
2024/05/05 07:32:41;;;;;;;5.88;4.15;;;17.00;99.90;;;;;;5227569;27;20477;-94
2024/05/05 07:35:09;;;;;;;6.63;4.30;;;17.00;99.90;;;;;;5253175;27;20382;-94
2024/05/05 07:37:41;;;;;;;7.35;4.50;;;17.10;99.90;;;;;;5253445;27;20387;-92
2024/05/05 07:40:09;;;;;;;6.63;4.28;;;17.20;99.90;;;;;;5225742;27;20121;-91
2024/05/05 07:42:36;;;;;;;5.13;3.80;;;17.20;99.90;;;;;;5253223;27;20147;-92
2024/05/05 07:45:03;;;;;;;4.60;3.65;;;17.30;99.90;;;;;;5226341;27;20058;-93
2024/05/05 07:47:30;;;;;;;4.65;3.13;;;17.40;99.30;;;;;;5225004;27;20082;-92
2024/05/05 07:49:58;;;;;;;4.97;3.42;;;17.50;87.20;;;;;;5253703;27;20058;-93
2024/05/05 07:52:25;;;;;;;5.72;3.08;;;17.60;13.50;;;;;;5224800;27;20089;-93
2024/05/05 07:54:52;;;;;;;4.55;3.00;;;17.70;1.00;;;;;;5252903;27;20063;-92
2024/05/05 07:57:19;;;;;;;3.67;2.90;;;17.80;1.00;;;;;;5251807;27;20101;-93
2024/05/05 07:59:47;;;;;;;4.88;2.65;;;17.90;1.00;;;;;;5252742;27;20503;-94
2024/05/05 08:02:14;;;;;;;3.60;2.88;;;17.90;1.00;;;;;;5225163;27;20071;-94
2024/05/05 08:04:41;;;;;;;6.10;3.38;;;18.00;1.00;;;;;;5225602;27;20144;-93
2024/05/05 08:07:08;;;;;;;6.78;3.38;;;18.20;1.00;;;;;;5228123;27;20058;-94
2024/05/05 08:09:45;;;;;;;5.28;3.22;;;18.40;1.00;;;;;;5253706;27;20073;-94
2024/05/05 08:12:14;;;;;;;6.30;4.13;;;18.50;1.00;;;;;;5225592;27;20530;-95
2024/05/05 08:14:42;;;;;;;6.03;3.28;;;18.70;1.00;;;;;;5224846;27;20066;-94
2024/05/05 08:17:11;;;;;;;6.70;3.60;;;18.80;1.00;;;;;;5256416;27;20084;-96
2024/05/05 08:19:43;;;;;;;5.90;3.80;;;18.90;1.00;;;;;;5228572;27;20054;-93
2024/05/05 08:22:10;;;;;;;5.50;3.65;;;19.00;1.00;;;;;;5237696;27;20065;-94
2024/05/05 08:24:38;;;;;;;6.30;3.40;;;19.20;1.00;;;;;;5216016;27;20527;-93
2024/05/05 08:27:05;;;;;;;5.22;3.47;;;19.40;1.00;;;;;;5217357;27;20086;-93
2024/05/05 08:29:35;;;;;;;4.63;3.58;;;19.40;1.00;;;;;;5190962;27;20555;-93
2024/05/05 08:32:03;;;;;;;4.93;4.07;;;19.60;1.00;;;;;;5190321;27;20107;-93
2024/05/05 08:34:30;;;;;;;7.38;3.90;;;19.60;1.00;;;;;;5218231;27;20055;-93
2024/05/05 08:36:57;;;;;;;5.15;4.15;;;19.70;1.00;;;;;;5217132;27;20054;-93
2024/05/05 08:39:24;;;;;;;4.93;3.50;;;19.80;1.00;;;;;;5190970;27;20067;-92
2024/05/05 08:41:59;;;;;;;7.60;4.32;;;19.90;1.00;;;;;;5190553;27;20538;-94
2024/05/05 08:44:28;;;;;;;6.57;3.40;;;20.10;1.00;;;;;;5190981;27;20116;-93
2024/05/05 08:46:56;;;;;;;4.72;3.55;;;20.30;1.00;;;;;;5217758;27;20081;-93
2024/05/05 08:49:24;;;;;;;6.38;3.38;;;20.40;1.00;;;;;;5190008;27;20082;-94
2024/05/05 08:51:51;;;;;;;4.43;3.63;;;20.50;1.00;;;;;;5190412;27;20082;-92
2024/05/05 08:54:19;;;;;;;5.82;4.13;;;20.70;1.00;;;;;;5195852;27;20126;-93
2024/05/05 08:56:46;;;;;;;6.60;3.90;;;20.70;1.00;;;;;;5204432;27;20057;-93
2024/05/05 08:59:14;;;;;;;5.82;3.63;;;20.70;1.00;;;;;;5198284;27;20170;-93
2024/05/05 09:01:42;;;;;;;5.15;3.80;;;20.80;1.00;;;;;;5184862;27;20619;-93
2024/05/05 09:04:16;;;;;;;3.47;2.83;;;21.00;1.00;;;;;;5199699;27;20085;-93
2024/05/05 09:06:54;;;;;;;5.80;3.15;;;21.10;1.00;;;;;;5192688;27;20092;-94
2024/05/05 09:09:24;;;;;;;4.35;3.15;;;21.10;1.00;;;;;;5190460;27;20499;-93
2024/05/05 09:11:51;;;;;;;7.22;3.70;;;21.20;1.00;;;;;;5189822;27;20058;-93
2024/05/05 09:14:25;;;;;;;3.85;2.38;;;21.00;1.00;;;;;;5190377;27;20517;-93
2024/05/05 09:16:54;;;;;;;5.82;3.13;;;21.00;1.00;;;;;;5190165;27;20486;-93
2024/05/05 09:19:22;;;;;;;5.60;3.20;;;21.00;1.00;;;;;;5217460;27;20080;-93
2024/05/05 09:21:49;;;;;;;3.80;2.70;;;21.00;1.00;;;;;;5190092;27;20070;-93
2024/05/05 09:24:17;;;;;;;3.72;2.90;;;21.10;1.00;;;;;;5217307;27;20057;-93
2024/05/05 09:26:44;;;;;;;3.85;2.50;;;21.20;1.00;;;;;;5189203;27;20063;-93
2024/05/05 09:29:11;;;;;;;4.30;2.50;;;21.20;1.00;;;;;;5190275;27;20137;-92
2024/05/05 09:31:38;;;;;;;5.20;2.55;;;21.20;1.00;;;;;;5189297;27;20062;-93
2024/05/05 09:34:07;;;;;;;3.85;2.80;;;21.40;1.00;;;;;;5190072;27;20085;-93
2024/05/05 09:36:37;;;;;;;3.30;2.20;;;21.60;1.00;;;;;;5216597;27;20081;-94
2024/05/05 09:39:05;;;;;;;5.18;2.50;;;21.80;1.00;;;;;;5189247;27;20059;-93
2024/05/05 09:41:32;;;;;;;4.75;2.80;;;22.10;1.00;;;;;;5188979;27;20569;-93
2024/05/05 09:44:00;;;;;;;3.38;2.25;;;22.10;99.90;;;;;;5188803;27;20487;-94
2024/05/05 09:46:30;;;;;;;4.15;1.60;;;22.10;99.90;;;;;;5188587;27;20078;-93
2024/05/05 09:49:16;;;;;;;2.60;1.40;;;22.00;99.90;;;;;;5188991;27;20546;-93
2024/05/05 09:51:55;;;;;;;5.82;1.52;;;21.90;99.90;;;;;;5189279;27;20063;-93
2024/05/05 09:54:30;;;;;;;2.22;1.50;;;22.00;99.90;;;;;;5188956;27;20065;-91
2024/05/05 09:57:15;;;;;;;1.48;1.20;;;22.00;99.90;;;;;;5182747;27;20067;-93
2024/05/05 09:59:46;;;;;;;2.88;1.20;;;22.20;99.90;;;;;;5183464;27;20483;-94
2024/05/05 10:02:14;;;;;;;2.08;1.10;;;22.30;99.90;;;;;;5210340;27;20059;-93
2024/05/05 10:04:42;;;;;;;2.78;1.10;;;22.40;99.90;;;;;;5182980;27;20068;-93
2024/05/05 10:07:26;;;;;;;2.65;0.98;;;22.40;99.90;;;;;;5210378;27;20106;-93
2024/05/05 10:09:53;;;;;;;3.10;1.10;;;22.30;99.90;;;;;;5183846;27;20068;-94
2024/05/05 10:12:20;;;;;;;2.22;1.38;;;22.20;99.90;;;;;;5183349;27;20568;-93
2024/05/05 10:14:50;;;;;;;1.88;1.20;;;22.20;99.90;;;;;;5182831;27;20058;-93
2024/05/05 10:17:28;;;;;;;2.33;1.27;;;22.10;99.90;;;;;;5183288;27;20475;-93
2024/05/05 10:20:03;;;;;;;2.47;1.20;;;22.30;99.90;;;;;;5183130;27;20082;-93
2024/05/05 10:22:32;;;;;;;2.88;1.65;;;22.40;99.90;;;;;;5184397;27;20530;-93
2024/05/05 10:25:00;;;;;;;2.53;1.40;;;22.50;99.90;;;;;;5191148;27;20054;-94
2024/05/05 10:27:28;;;;;;;3.95;1.40;;;22.60;99.90;;;;;;5183571;27;20058;-93
2024/05/05 10:30:00;;;;;;;5.35;2.10;;;22.80;99.90;;;;;;5183321;27;20087;-93
2024/05/05 10:32:27;;;;;;;2.97;2.10;;;23.00;99.90;;;;;;5174345;27;20508;-93
2024/05/05 10:34:55;;;;;;;5.30;1.85;;;23.20;99.90;;;;;;5156006;27;20060;-93
2024/05/05 10:37:23;;;;;;;2.95;1.63;;;23.30;99.90;;;;;;5155942;27;20059;-93
2024/05/05 10:39:51;;;;;;;2.45;1.88;;;23.40;99.90;;;;;;5157410;27;20059;-94
2024/05/05 10:42:20;;;;;;;4.05;1.48;;;23.50;99.90;;;;;;5186273;27;20089;-93
2024/05/05 10:44:48;;;;;;;2.40;1.35;;;23.50;99.90;;;;;;5158808;27;20260;-93
2024/05/05 10:47:16;;;;;;;2.53;1.50;;;23.60;99.90;;;;;;5159259;27;20150;-93
2024/05/05 10:49:43;;;;;;;3.65;2.00;;;23.70;99.90;;;;;;5159073;27;20063;-93
2024/05/05 10:52:12;;;;;;;3.15;2.00;;;23.80;99.90;;;;;;5158581;27;20059;-94
2024/05/05 10:54:40;;;;;;;3.30;1.73;;;23.60;99.90;;;;;;5158738;27;20115;-93
2024/05/05 10:57:09;;;;;;;3.17;2.13;;;23.40;99.90;;;;;;5162818;27;20082;-93
2024/05/05 10:59:36;;;;;;;2.10;1.45;;;23.00;99.90;;;;;;5160580;27;20431;-92
2024/05/05 11:02:03;;;;;;;3.00;1.95;;;22.80;99.90;;;;;;5159707;27;20060;-92
2024/05/05 11:04:32;;;;;;;2.17;1.60;;;22.90;99.90;;;;;;5186299;27;20055;-91
2024/05/05 11:07:02;;;;;;;3.45;2.13;;;23.10;99.90;;;;;;5160196;27;20078;-92
2024/05/05 11:09:31;;;;;;;3.08;1.90;;;23.40;99.90;;;;;;5188379;27;20149;-93
2024/05/05 11:11:59;;;;;;;3.72;1.50;;;23.70;99.90;;;;;;5191283;27;20161;-92
2024/05/05 11:14:27;;;;;;;2.75;1.50;;;24.10;99.90;;;;;;5187303;27;20063;-92
2024/05/05 11:16:55;;;;;;;2.08;1.25;;;24.20;99.90;;;;;;5207727;27;20158;-92
2024/05/05 11:19:22;;;;;;;3.08;1.65;;;24.20;99.90;;;;;;5246832;27;20094;-93
2024/05/05 11:21:50;;;;;;;5.38;1.63;;;24.10;99.90;;;;;;5224488;27;20129;-95
2024/05/05 11:24:18;;;;;;;3.22;1.80;;;24.20;99.90;;;;;;5225507;27;20054;-92
2024/05/05 11:26:46;;;;;;;2.97;1.80;;;24.20;99.90;;;;;;5252587;27;20066;-92
2024/05/05 11:29:13;;;;;;;2.63;1.52;;;24.30;99.90;;;;;;5252428;27;20066;-93
2024/05/05 11:31:41;;;;;;;4.70;1.30;;;24.40;99.90;;;;;;5252042;27;20054;-92
2024/05/05 11:34:09;;;;;;;2.33;1.45;;;24.50;99.90;;;;;;5225261;27;20110;-92
2024/05/05 11:36:36;;;;;;;2.40;1.50;;;24.60;99.90;;;;;;5252087;27;20077;-93
2024/05/05 11:39:03;;;;;;;3.13;1.38;;;24.70;99.90;;;;;;5207662;27;20138;-92
2024/05/05 11:42:05;;;;;;;2.13;1.20;;;24.90;99.90;;;;;;5191492;27;20177;-93
2024/05/05 11:44:33;;;;;;;2.03;1.02;;;24.90;99.90;;;;;;5186055;27;20055;-93
2024/05/05 11:47:18;;;;;;;3.28;1.35;;;24.90;99.90;;;;;;5190145;27;20064;-93
2024/05/05 11:50:50;;;;;;;2.33;1.20;;;24.70;99.90;;;;;;5259789;27;20062;-93
2024/05/05 11:53:22;;;;;;;2.33;1.05;;;24.50;99.90;;;;;;5226735;27;20136;-92
2024/05/05 11:56:11;;;;;;;2.67;1.10;;;24.30;99.90;;;;;;5235330;27;20107;-92
2024/05/05 11:58:39;;;;;;;4.35;1.13;;;24.30;99.90;;;;;;5218508;27;20055;-92
2024/05/05 12:01:44;;;;;;;2.90;1.08;;;24.40;99.90;;;;;;5192007;27;20091;-91
2024/05/05 12:04:31;;;;;;;2.75;1.23;;;24.80;99.90;;;;;;5211953;27;20111;-93
2024/05/05 12:07:16;;;;;;;2.28;1.40;;;25.10;99.90;;;;;;5219174;27;20085;-93
2024/05/05 12:10:03;;;;;;;4.80;1.30;;;25.20;99.90;;;;;;5218001;27;20058;-93
2024/05/05 12:12:45;;;;;;;1.60;1.02;;;25.20;99.90;;;;;;5219367;27;20062;-94
2024/05/05 12:15:16;;;;;;;3.38;1.20;;;25.20;99.90;;;;;;5191987;27;20077;-94
2024/05/05 12:17:53;;;;;;;3.63;1.20;;;25.00;99.90;;;;;;5191472;27;20059;-93
2024/05/05 12:20:30;;;;;;;2.10;0.90;;;24.90;99.90;;;;;;5191474;27;20097;-94
2024/05/05 12:22:59;;;;;;;2.40;0.90;;;24.70;99.90;;;;;;5218480;27;20077;-94
2024/05/05 12:25:36;;;;;;;4.30;1.30;;;24.80;99.90;;;;;;5286811;22;20079;-93
2024/05/05 12:28:13;;;;;;;2.47;1.30;;;25.00;99.90;;;;;;5188082;27;20082;-93
2024/05/05 12:30:42;;;;;;;3.53;1.02;;;25.40;99.90;;;;;;5201642;27;20083;-93
2024/05/05 12:33:10;;;;;;;2.45;1.08;;;25.70;99.90;;;;;;5200653;27;20075;-93
2024/05/05 12:35:37;;;;;;;4.30;0.88;;;25.90;99.90;;;;;;5183888;27;20056;-93
2024/05/05 12:38:04;;;;;;;2.67;1.10;;;25.90;99.90;;;;;;5155187;27;20199;-94
2024/05/05 12:40:34;;;;;;;1.55;0.93;;;26.00;99.90;;;;;;5182612;27;20097;-94
2024/05/05 12:43:02;;;;;;;3.08;0.95;;;26.10;99.90;;;;;;5157751;27;20064;-94
2024/05/05 12:45:31;;;;;;;4.03;0.90;;;26.20;99.90;;;;;;5156906;27;20083;-94
2024/05/05 12:48:18;;;;;;;3.35;0.90;;;26.20;99.90;;;;;;5180501;27;20061;-93
2024/05/05 12:50:46;;;;;;;3.08;0.90;;;26.40;99.90;;;;;;5182489;27;20115;-95
2024/05/05 12:53:13;;;;;;;2.05;0.52;;;26.00;99.90;;;;;;5184314;27;20515;-93
2024/05/05 12:55:41;;;;;;;2.05;0.90;;;25.90;99.90;;;;;;5156486;27;20159;-94
2024/05/05 12:58:11;;;;;;;3.40;0.80;;;26.00;99.90;;;;;;5182254;27;20075;-93
2024/05/05 13:00:39;;;;;;;4.20;0.77;;;26.10;99.90;;;;;;5181753;27;20064;-94